Time;durP1;ratioP1;P1;durP2;ratioP2;P2;SDS_P1;SDS_P2;PMS_P1;PMS_P2;Temp;Humidity;BMP_temperature;BMP_pressure;BME280_temperature;BME280_humidity;BME280_pressure;Samples;Min_cycle;Max_cycle;Signal;HPM_P1;HPM_P2
2022/06/02 00:04:56;;;;;;;1.30;0.40;;;13.30;84.20;;;;;;10289637;28;20437;-87
2022/06/02 00:10:07;;;;;;;0.95;0.50;;;13.30;85.60;;;;;;10299446;28;20082;-86
2022/06/02 00:15:23;;;;;;;1.70;0.50;;;13.20;88.50;;;;;;10280304;28;20120;-86
2022/06/02 00:20:46;;;;;;;1.75;1.20;;;13.00;89.70;;;;;;10285710;28;20043;-88
2022/06/02 00:25:58;;;;;;;1.40;0.68;;;12.90;90.30;;;;;;10286278;28;20041;-88
2022/06/02 00:31:10;;;;;;;1.02;0.70;;;12.70;90.90;;;;;;10264725;28;20043;-88
2022/06/02 00:36:29;;;;;;;0.50;0.40;;;12.60;91.90;;;;;;10299559;28;20097;-88
2022/06/02 00:41:54;;;;;;;2.67;0.60;;;12.40;93.10;;;;;;10291501;28;20054;-88
2022/06/02 00:47:03;;;;;;;1.02;0.50;;;12.30;93.70;;;;;;10296962;28;20043;-88
2022/06/02 00:52:14;;;;;;;0.98;0.50;;;12.20;95.20;;;;;;10260505;28;20050;-88
2022/06/02 00:57:31;;;;;;;0.75;0.50;;;12.10;96.60;;;;;;10298498;28;20043;-88
2022/06/02 01:02:50;;;;;;;1.60;0.50;;;12.10;97.20;;;;;;10295003;28;20054;-88
2022/06/02 01:08:12;;;;;;;1.15;0.40;;;11.80;99.30;;;;;;10295825;28;20051;-88
2022/06/02 01:13:41;;;;;;;1.75;0.43;;;11.80;99.90;;;;;;10284813;28;20050;-88
2022/06/02 01:18:55;;;;;;;0.73;0.45;;;11.60;99.90;;;;;;10289446;28;20086;-89
2022/06/02 01:24:10;;;;;;;0.85;0.60;;;11.60;99.90;;;;;;10272951;28;20055;-89
2022/06/02 01:29:38;;;;;;;2.00;0.63;;;11.40;99.90;;;;;;10285506;28;20050;-88
2022/06/02 01:34:52;;;;;;;1.00;0.65;;;11.30;99.90;;;;;;10302325;28;20054;-89
2022/06/02 01:40:22;;;;;;;2.97;0.57;;;11.20;99.90;;;;;;10280484;28;20152;-88
2022/06/02 01:45:59;;;;;;;1.17;0.60;;;11.10;99.90;;;;;;10304449;28;20051;-88
2022/06/02 01:51:17;;;;;;;3.28;0.85;;;11.00;99.90;;;;;;10286704;28;20061;-89
2022/06/02 01:56:19;;;;;;;;;;;10.90;99.90;;;;;;10301909;28;20053;-89
2022/06/02 02:01:37;;;;;;;3.05;1.00;;;10.90;99.90;;;;;;10298524;28;19928;-89
2022/06/02 02:07:01;;;;;;;2.40;1.05;;;10.80;99.90;;;;;;10291928;28;20081;-89
2022/06/02 02:12:06;;;;;;;1.23;0.70;;;10.70;99.90;;;;;;10286311;28;20117;-86
2022/06/02 02:17:20;;;;;;;1.92;0.60;;;10.60;99.90;;;;;;10308361;28;20046;-87
2022/06/02 02:22:46;;;;;;;0.73;0.60;;;10.60;99.90;;;;;;10288450;28;20082;-86
2022/06/02 02:28:06;;;;;;;0.93;0.68;;;10.50;99.90;;;;;;10289170;28;20063;-87
2022/06/02 02:33:07;;;;;;;2.30;0.88;;;10.40;99.90;;;;;;10291345;28;20035;-87
2022/06/02 02:38:20;;;;;;;1.08;0.90;;;10.30;99.90;;;;;;10284264;28;20711;-87
2022/06/02 02:43:29;;;;;;;7.53;1.20;;;10.20;99.90;;;;;;10267525;28;20488;-86
2022/06/02 02:48:59;;;;;;;3.55;0.98;;;10.10;99.90;;;;;;10286369;28;20411;-86
2022/06/02 02:54:13;;;;;;;3.00;1.70;;;10.10;99.90;;;;;;10297179;28;20055;-86
2022/06/02 02:59:55;;;;;;;2.97;1.90;;;9.90;99.90;;;;;;10303569;28;20466;-86
2022/06/02 03:05:15;;;;;;;7.05;2.35;;;10.00;99.90;;;;;;10266272;28;20047;-87
2022/06/02 03:10:35;;;;;;;4.15;1.95;;;9.90;99.90;;;;;;10268751;28;20054;-88
2022/06/02 03:15:45;;;;;;;3.53;1.90;;;9.70;99.90;;;;;;10277461;28;20050;-88
2022/06/02 03:20:57;;;;;;;5.50;1.83;;;9.60;99.90;;;;;;10290454;28;23209;-88
2022/06/02 03:26:12;;;;;;;3.47;2.17;;;9.50;99.90;;;;;;10295687;28;20058;-87
2022/06/02 03:31:46;;;;;;;2.85;1.80;;;9.50;99.90;;;;;;10282570;28;20053;-87
2022/06/02 03:36:56;;;;;;;2.60;1.55;;;9.50;99.90;;;;;;10294850;28;21437;-87
2022/06/02 03:42:14;;;;;;;3.40;1.55;;;9.40;99.90;;;;;;10308262;28;20035;-87
2022/06/02 03:47:41;;;;;;;4.40;1.48;;;9.40;99.90;;;;;;10289922;28;20133;-86
2022/06/02 03:52:48;;;;;;;3.00;1.88;;;9.40;99.90;;;;;;10284658;28;20110;-86
2022/06/02 03:57:59;;;;;;;2.92;1.80;;;9.40;99.90;;;;;;10307206;28;20165;-86
2022/06/02 04:03:05;;;;;;;3.20;1.88;;;9.30;99.90;;;;;;10287105;28;20137;-87
2022/06/02 04:08:19;;;;;;;3.13;1.97;;;9.40;99.90;;;;;;10285705;28;20047;-86
2022/06/02 04:13:37;;;;;;;4.85;2.70;;;9.40;99.90;;;;;;10303141;28;20056;-87
2022/06/02 04:18:55;;;;;;;4.80;2.30;;;9.40;99.90;;;;;;10282831;28;20101;-87
2022/06/02 04:24:34;;;;;;;3.28;1.77;;;9.50;99.90;;;;;;10290770;28;20043;-87
2022/06/02 04:29:45;;;;;;;8.43;1.80;;;9.50;99.90;;;;;;10296876;28;20027;-88
2022/06/02 04:35:03;;;;;;;3.70;2.10;;;9.60;99.90;;;;;;10274229;28;20100;-87
2022/06/02 04:40:23;;;;;;;;;;;9.70;99.90;;;;;;10282745;28;20050;-87
2022/06/02 04:45:55;;;;;;;4.90;1.60;;;9.80;99.90;;;;;;10302963;28;19922;-88
2022/06/02 04:51:23;;;;;;;2.83;1.70;;;9.90;99.90;;;;;;10294737;28;20169;-87
2022/06/02 04:56:28;;;;;;;;;;;10.00;99.90;;;;;;10303729;28;20175;-87
2022/06/02 05:01:52;;;;;;;3.92;1.40;;;10.10;99.90;;;;;;10276731;28;19932;-87
2022/06/02 05:07:20;;;;;;;3.55;1.50;;;10.10;99.90;;;;;;10277019;28;20058;-88
2022/06/02 05:13:06;;;;;;;1.70;1.30;;;10.30;99.90;;;;;;10284795;28;20046;-88
2022/06/02 05:18:30;;;;;;;1.80;1.20;;;10.40;99.90;;;;;;10199465;28;20051;-86
2022/06/02 05:24:04;;;;;;;1.65;1.30;;;10.60;99.90;;;;;;10274446;28;20467;-87
2022/06/02 05:29:27;;;;;;;4.10;1.45;;;10.80;99.90;;;;;;10290145;28;20050;-87
2022/06/02 05:35:13;;;;;;;3.08;1.35;;;11.00;99.90;;;;;;10289873;28;20397;-87
2022/06/02 05:40:30;;;;;;;2.92;1.42;;;11.20;99.90;;;;;;10278462;28;20046;-87
2022/06/02 05:46:22;;;;;;;2.75;1.33;;;11.20;99.90;;;;;;10316957;28;20046;-86
2022/06/02 05:51:45;;;;;;;4.28;1.40;;;11.30;99.90;;;;;;10212829;28;20054;-87
2022/06/02 05:57:03;;;;;;;3.70;1.25;;;11.60;99.90;;;;;;10283466;28;20045;-88
2022/06/02 06:02:39;;;;;;;4.10;1.60;;;11.80;99.90;;;;;;10291991;28;20038;-88
2022/06/02 06:08:14;;;;;;;3.03;1.50;;;12.00;99.90;;;;;;10278024;28;20042;-88
2022/06/02 06:13:34;;;;;;;5.40;1.67;;;12.20;99.90;;;;;;10295819;28;20062;-87
2022/06/02 06:19:06;;;;;;;1.98;1.50;;;12.50;99.90;;;;;;10303584;28;20043;-87
2022/06/02 06:24:39;;;;;;;5.40;2.13;;;12.70;99.90;;;;;;10305075;28;20412;-90
2022/06/02 06:30:05;;;;;;;3.72;1.60;;;12.90;99.90;;;;;;10284072;28;20404;-90
2022/06/02 06:35:36;;;;;;;3.15;2.03;;;13.10;99.90;;;;;;10311942;28;20631;-90
2022/06/02 06:41:00;;;;;;;4.05;2.13;;;13.30;99.90;;;;;;10281959;28;20500;-89
2022/06/02 06:46:27;;;;;;;4.80;2.70;;;13.50;99.90;;;;;;10292915;28;20082;-89
2022/06/02 06:51:59;;;;;;;3.63;2.53;;;13.70;99.90;;;;;;10287744;28;20062;-89
2022/06/02 06:57:10;;;;;;;7.10;2.92;;;13.90;99.90;;;;;;10271293;28;20111;-90
2022/06/02 07:02:33;;;;;;;4.30;2.72;;;14.00;99.90;;;;;;10247268;28;20053;-88
2022/06/02 07:07:59;;;;;;;5.03;2.33;;;14.10;99.90;;;;;;10279332;28;20059;-89
2022/06/02 07:13:02;;;;;;;6.18;3.13;;;14.20;99.90;;;;;;10260197;28;20042;-89
2022/06/02 07:18:15;;;;;;;5.60;3.25;;;14.30;99.90;;;;;;10279367;28;20050;-89
2022/06/02 07:23:55;;;;;;;5.03;3.22;;;14.50;99.90;;;;;;10281577;28;20054;-89
2022/06/02 07:29:17;;;;;;;4.00;2.92;;;14.70;99.90;;;;;;10304358;28;20051;-89
2022/06/02 07:34:55;;;;;;;9.20;2.88;;;14.80;99.90;;;;;;10290174;28;20049;-89
2022/06/02 07:40:32;;;;;;;8.02;3.28;;;15.10;99.10;;;;;;10292812;28;20061;-88
2022/06/02 07:45:46;;;;;;;7.40;3.40;;;15.30;98.40;;;;;;10276880;28;20053;-89
2022/06/02 07:51:06;;;;;;;6.18;3.00;;;15.50;98.30;;;;;;10299281;28;20089;-89
2022/06/02 07:56:42;;;;;;;6.90;3.60;;;15.60;96.50;;;;;;10289990;28;20050;-89
2022/06/02 08:01:43;;;;;;;5.00;2.42;;;15.80;94.80;;;;;;10286003;28;20054;-87
2022/06/02 08:07:05;;;;;;;8.85;2.63;;;16.00;91.50;;;;;;10281130;28;20161;-89
2022/06/02 08:12:12;;;;;;;6.20;3.45;;;16.10;90.40;;;;;;10309133;28;20061;-89
2022/06/02 08:17:24;;;;;;;6.68;3.60;;;16.30;90.80;;;;;;10273719;28;20129;-89
2022/06/02 08:23:11;;;;;;;7.40;4.13;;;16.50;90.20;;;;;;10282447;28;20050;-89
2022/06/02 08:28:51;;;;;;;6.63;3.60;;;16.50;88.50;;;;;;10291803;28;20050;-90
2022/06/02 08:34:15;;;;;;;6.38;3.47;;;16.70;89.00;;;;;;10283449;28;20042;-90
2022/06/02 08:39:47;;;;;;;8.85;3.35;;;16.90;88.80;;;;;;10297468;28;20400;-89
2022/06/02 08:45:08;;;;;;;4.13;3.00;;;17.10;87.00;;;;;;10279411;28;20050;-89
2022/06/02 08:50:47;;;;;;;5.13;3.28;;;17.20;86.00;;;;;;10307268;28;20531;-89
2022/06/02 08:56:20;;;;;;;3.75;2.47;;;17.30;82.70;;;;;;10306947;28;20057;-89
2022/06/02 09:01:34;;;;;;;6.75;2.63;;;17.50;82.10;;;;;;10297273;28;20045;-88
2022/06/02 09:07:05;;;;;;;5.68;2.50;;;17.80;82.70;;;;;;10287255;28;20515;-89
2022/06/02 09:13:05;;;;;;;6.63;2.22;;;17.60;79.70;;;;;;10299128;28;20415;-89
2022/06/02 09:18:16;;;;;;;3.95;1.85;;;17.90;76.90;;;;;;10240286;28;20045;-89
2022/06/02 09:23:45;;;;;;;2.80;1.75;;;17.80;73.80;;;;;;10278485;28;20052;-90
2022/06/02 09:29:14;;;;;;;2.67;1.63;;;17.70;74.80;;;;;;10275195;28;20051;-89
2022/06/02 09:34:33;;;;;;;3.50;1.23;;;17.80;75.40;;;;;;10274272;28;20073;-89
2022/06/02 09:40:04;;;;;;;2.63;1.20;;;18.10;74.80;;;;;;10263191;28;20121;-89
2022/06/02 09:45:06;;;;;;;10.27;1.67;;;18.30;74.90;;;;;;10283487;28;20043;-90
2022/06/02 09:50:19;;;;;;;2.20;1.40;;;18.50;71.90;;;;;;10256813;28;20054;-90
2022/06/02 09:55:30;;;;;;;2.85;0.73;;;18.70;72.10;;;;;;10268039;28;20114;-89
2022/06/02 10:00:44;;;;;;;1.25;0.80;;;19.00;68.90;;;;;;10277050;28;20053;-89
2022/06/02 10:06:04;;;;;;;1.45;0.70;;;19.00;67.50;;;;;;10274744;28;20074;-89
2022/06/02 10:11:32;;;;;;;2.00;0.93;;;18.90;66.60;;;;;;10262608;28;20111;-89
2022/06/02 10:16:58;;;;;;;2.67;1.08;;;19.20;67.10;;;;;;10275413;28;20057;-90
2022/06/02 10:22:11;;;;;;;1.77;1.05;;;19.40;66.70;;;;;;10217313;28;20137;-88
2022/06/02 10:27:54;;;;;;;3.15;0.88;;;19.40;67.30;;;;;;10260940;28;20133;-88
2022/06/02 10:33:10;;;;;;;1.33;0.68;;;19.60;65.60;;;;;;10291837;28;20110;-89
2022/06/02 10:38:33;;;;;;;1.23;0.75;;;19.50;65.50;;;;;;10305887;28;20104;-88
2022/06/02 10:43:51;;;;;;;1.15;0.65;;;19.90;64.80;;;;;;10279348;28;20084;-89
2022/06/02 10:49:31;;;;;;;1.60;0.40;;;20.30;63.70;;;;;;10276510;28;20676;-89
2022/06/02 10:54:54;;;;;;;1.42;0.75;;;20.70;63.10;;;;;;10248662;28;20065;-89
2022/06/02 11:00:24;;;;;;;1.00;0.50;;;20.80;61.60;;;;;;10286860;28;20724;-89
2022/06/02 11:05:41;;;;;;;1.25;0.73;;;21.30;57.40;;;;;;10302740;28;20128;-89
2022/06/02 11:11:33;;;;;;;4.32;0.50;;;21.10;58.30;;;;;;10305000;28;20101;-89
2022/06/02 11:16:58;;;;;;;1.60;0.50;;;21.60;57.60;;;;;;10242179;28;20042;-89
2022/06/02 11:22:37;;;;;;;1.05;0.40;;;21.60;56.60;;;;;;10298242;28;20088;-89
2022/06/02 11:28:15;;;;;;;0.50;0.28;;;22.00;56.40;;;;;;10276755;28;20150;-88
2022/06/02 11:33:55;;;;;;;1.63;0.20;;;21.90;54.40;;;;;;10286909;28;20473;-89
2022/06/02 11:39:15;;;;;;;0.52;0.20;;;22.50;53.20;;;;;;10302620;28;20046;-89
2022/06/02 11:44:48;;;;;;;0.43;0.30;;;22.70;52.10;;;;;;10294609;28;20049;-90
2022/06/02 11:50:11;;;;;;;1.33;0.30;;;22.80;51.20;;;;;;10267771;28;20027;-90
2022/06/02 11:55:32;;;;;;;1.05;0.20;;;23.10;52.50;;;;;;10305300;28;20046;-91
2022/06/02 12:00:54;;;;;;;0.20;0.20;;;23.20;51.30;;;;;;10296637;28;20113;-89
2022/06/02 12:06:17;;;;;;;0.73;0.20;;;22.90;49.60;;;;;;10300561;28;20081;-90
2022/06/02 12:11:31;;;;;;;0.20;0.10;;;23.20;48.70;;;;;;10296943;28;20778;-90
2022/06/02 12:16:54;;;;;;;2.47;0.20;;;23.10;49.70;;;;;;10285650;28;20145;-89
2022/06/02 12:21:59;;;;;;;0.50;0.20;;;23.60;49.30;;;;;;10307079;28;20054;-90
2022/06/02 12:27:35;;;;;;;5.25;0.30;;;23.80;48.00;;;;;;10292383;28;20057;-89
2022/06/02 12:33:08;;;;;;;4.00;0.20;;;23.60;46.80;;;;;;10319785;28;20046;-89
2022/06/02 12:38:41;;;;;;;0.45;0.20;;;24.10;46.00;;;;;;10316688;28;20057;-90
2022/06/02 12:43:58;;;;;;;0.30;0.10;;;24.00;46.90;;;;;;10274673;28;20046;-91
2022/06/02 12:49:00;;;;;;;0.25;0.10;;;24.40;45.80;;;;;;10322821;28;20022;-91
2022/06/02 12:54:20;;;;;;;0.40;0.20;;;24.40;44.10;;;;;;10310391;28;20058;-90
2022/06/02 12:59:40;;;;;;;0.40;0.10;;;23.80;44.50;;;;;;10310211;28;20038;-90
2022/06/02 13:05:09;;;;;;;0.75;0.13;;;24.20;44.20;;;;;;10314518;28;20070;-89
2022/06/02 13:10:27;;;;;;;0.20;0.10;;;24.60;42.90;;;;;;10322636;28;20046;-90
2022/06/02 13:15:49;;;;;;;0.05;0.05;;;24.60;42.10;;;;;;10310822;28;20045;-90
2022/06/02 13:21:19;;;;;;;1.35;0.10;;;24.70;41.00;;;;;;10268271;28;20058;-91
2022/06/02 13:26:58;;;;;;;3.30;0.20;;;25.10;42.70;;;;;;10283754;28;20058;-90
2022/06/02 13:32:19;;;;;;;0.10;0.10;;;25.30;41.10;;;;;;10281418;28;20058;-89
2022/06/02 13:37:45;;;;;;;0.30;0.10;;;25.80;40.90;;;;;;10288095;28;20047;-89
2022/06/02 13:43:06;;;;;;;0.57;0.00;;;25.70;38.30;;;;;;10280938;28;20126;-85
2022/06/02 13:48:42;;;;;;;0.17;0.10;;;25.70;38.50;;;;;;10300528;28;20543;-87
2022/06/02 14:00:04;;;;;;;0.10;0.10;;;26.80;38.10;;;;;;10303222;28;20061;-86
2022/06/02 14:05:24;;;;;;;0.40;0.00;;;27.00;38.90;;;;;;10301011;28;20125;-86
2022/06/02 14:10:49;;;;;;;0.22;0.10;;;27.80;38.50;;;;;;10290877;28;20074;-85
2022/06/02 14:16:12;;;;;;;0.90;0.10;;;27.00;35.90;;;;;;10309038;28;20027;-86
2022/06/02 14:21:39;;;;;;;2.03;0.10;;;26.80;36.90;;;;;;10302137;28;20054;-86
2022/06/02 14:27:16;;;;;;;0.40;0.10;;;27.10;36.80;;;;;;10303273;28;20125;-87
2022/06/02 14:32:46;;;;;;;1.35;0.10;;;26.80;38.50;;;;;;10261391;28;20060;-87
2022/06/02 14:38:02;;;;;;;0.10;0.10;;;26.70;40.20;;;;;;10292765;28;20055;-86
2022/06/02 14:43:28;;;;;;;0.10;0.10;;;27.20;38.80;;;;;;10307372;28;20082;-86
2022/06/02 14:48:49;;;;;;;0.35;0.10;;;27.70;37.80;;;;;;10289748;28;20054;-87
2022/06/02 14:54:22;;;;;;;0.20;0.10;;;28.00;38.60;;;;;;10300442;28;20064;-86
2022/06/02 14:59:57;;;;;;;0.00;0.00;;;28.10;38.80;;;;;;10293576;28;20056;-86
2022/06/02 15:05:10;;;;;;;0.60;0.10;;;28.20;39.40;;;;;;10304482;28;20108;-87
2022/06/02 15:10:54;;;;;;;0.30;0.00;;;28.40;38.20;;;;;;10292783;28;20289;-87
2022/06/02 15:16:07;;;;;;;0.15;0.10;;;28.30;37.70;;;;;;10286726;28;20133;-86
2022/06/02 15:21:25;;;;;;;0.17;0.10;;;28.20;38.50;;;;;;10300235;28;20050;-87
2022/06/02 15:26:46;;;;;;;0.20;0.10;;;27.70;37.10;;;;;;10293381;28;20046;-86
2022/06/02 15:32:25;;;;;;;0.20;0.10;;;27.80;37.20;;;;;;10286186;28;20138;-90
2022/06/02 15:37:48;;;;;;;0.28;0.10;;;28.10;37.20;;;;;;10259739;28;20065;-90
2022/06/02 15:43:14;;;;;;;0.00;0.00;;;27.80;36.70;;;;;;10289478;28;20057;-90
2022/06/02 15:48:57;;;;;;;0.10;0.10;;;27.40;37.30;;;;;;10282572;28;20104;-90
2022/06/02 15:54:32;;;;;;;0.10;0.10;;;27.00;37.60;;;;;;10290706;28;20594;-90
2022/06/02 16:00:11;;;;;;;0.10;0.10;;;27.10;38.20;;;;;;10286781;28;20057;-91
2022/06/02 16:06:04;;;;;;;0.20;0.10;;;27.20;38.00;;;;;;10297415;28;20082;-90
2022/06/02 16:11:47;;;;;;;0.10;0.10;;;26.90;38.50;;;;;;10267538;28;20102;-91
2022/06/02 16:17:04;;;;;;;0.10;0.10;;;26.80;38.70;;;;;;10288760;28;20061;-90
2022/06/02 16:22:26;;;;;;;0.50;0.10;;;26.90;38.80;;;;;;10321561;28;20110;-90
2022/06/02 16:28:21;;;;;;;0.10;0.10;;;26.90;38.20;;;;;;10312327;28;20047;-90
2022/06/02 16:33:58;;;;;;;3.30;0.10;;;27.30;37.70;;;;;;10315981;28;20106;-89
2022/06/02 16:39:38;;;;;;;0.10;0.10;;;27.60;38.40;;;;;;10267806;28;20047;-90
2022/06/02 16:45:17;;;;;;;0.20;0.10;;;27.70;36.20;;;;;;10297211;28;20046;-90
2022/06/02 16:50:56;;;;;;;0.15;0.10;;;27.70;36.30;;;;;;10292142;28;20478;-90
2022/06/02 16:55:59;;;;;;;0.20;0.10;;;27.60;36.10;;;;;;10315307;28;20031;-89
2022/06/02 17:01:25;;;;;;;0.22;0.17;;;27.90;37.30;;;;;;10335146;28;20050;-90
2022/06/02 17:06:31;;;;;;;;;;;28.40;36.20;;;;;;10325096;28;20086;-89
2022/06/02 17:11:41;;;;;;;0.77;0.10;;;28.30;36.40;;;;;;10308464;28;19921;-89
2022/06/02 17:16:51;;;;;;;0.98;0.10;;;28.30;36.00;;;;;;10338066;28;20460;-89
2022/06/02 17:22:14;;;;;;;0.08;0.03;;;28.20;35.80;;;;;;10332473;28;20046;-86
2022/06/02 17:27:36;;;;;;;0.20;0.10;;;27.80;36.40;;;;;;10340025;28;20058;-86
2022/06/02 17:32:52;;;;;;;0.68;0.03;;;27.70;36.20;;;;;;10332404;28;20097;-86
2022/06/02 17:38:16;;;;;;;2.20;0.10;;;27.60;37.20;;;;;;10315278;28;20102;-86
2022/06/02 17:43:37;;;;;;;0.70;0.20;;;26.90;38.00;;;;;;10341401;28;20038;-86
2022/06/02 17:48:51;;;;;;;0.10;0.10;;;26.20;41.20;;;;;;10323748;28;20397;-87
2022/06/02 17:54:26;;;;;;;0.45;0.15;;;26.20;41.80;;;;;;10314428;28;20046;-87
2022/06/02 18:00:18;;;;;;;0.93;0.20;;;26.20;41.70;;;;;;10309763;28;20038;-86
2022/06/02 18:05:27;;;;;;;0.25;0.15;;;26.40;41.10;;;;;;10270358;28;20035;-87
2022/06/02 18:10:56;;;;;;;0.52;0.10;;;26.40;41.90;;;;;;10297584;28;20040;-86
2022/06/02 18:16:19;;;;;;;0.10;0.10;;;25.70;42.80;;;;;;10319604;28;20065;-86
2022/06/02 18:21:35;;;;;;;0.45;0.20;;;25.10;43.80;;;;;;10301891;28;20092;-87
2022/06/02 18:26:54;;;;;;;0.83;0.20;;;24.50;44.90;;;;;;10316660;28;20042;-90
2022/06/02 18:32:25;;;;;;;0.75;0.20;;;23.80;46.60;;;;;;10292318;28;20261;-90
2022/06/02 18:38:04;;;;;;;0.28;0.10;;;23.20;50.50;;;;;;10303242;28;20052;-89
2022/06/02 18:43:29;;;;;;;1.00;0.20;;;22.50;52.80;;;;;;10305117;28;20468;-90
2022/06/02 18:48:49;;;;;;;0.75;0.30;;;22.00;54.90;;;;;;10307288;28;20125;-89
2022/06/02 18:54:33;;;;;;;5.28;0.20;;;21.50;56.20;;;;;;10303046;28;20057;-90
2022/06/02 19:00:02;;;;;;;0.20;0.20;;;21.10;57.00;;;;;;10275667;28;20066;-90
2022/06/02 19:05:31;;;;;;;0.57;0.28;;;20.80;58.40;;;;;;10286315;28;20145;-89
2022/06/02 19:16:18;;;;;;;0.22;0.20;;;20.20;59.90;;;;;;10288741;28;20054;-90
2022/06/02 19:21:48;;;;;;;0.20;0.20;;;19.90;60.70;;;;;;10281575;28;20053;-90
2022/06/02 19:27:05;;;;;;;1.15;0.20;;;19.70;61.40;;;;;;10300388;28;20054;-91
2022/06/02 19:32:19;;;;;;;0.55;0.20;;;19.40;62.00;;;;;;10310081;28;20047;-90
2022/06/02 19:37:59;;;;;;;0.60;0.25;;;19.20;62.60;;;;;;10292292;28;20046;-90
2022/06/02 19:43:03;;;;;;;0.50;0.20;;;18.90;63.10;;;;;;10255319;28;20130;-90
2022/06/02 19:48:27;;;;;;;2.45;0.28;;;18.80;63.70;;;;;;10294505;28;20059;-90
2022/06/02 19:53:40;;;;;;;1.20;0.20;;;18.50;64.40;;;;;;10281482;28;20046;-90
2022/06/02 19:58:49;;;;;;;0.13;0.10;;;18.30;65.40;;;;;;10296901;28;20050;-90
2022/06/02 20:04:17;;;;;;;0.20;0.20;;;18.10;66.10;;;;;;10264511;28;20054;-90
2022/06/02 20:09:38;;;;;;;0.30;0.20;;;18.00;66.90;;;;;;10301724;28;20069;-89
2022/06/02 20:14:44;;;;;;;0.35;0.10;;;17.80;67.50;;;;;;10308939;28;20530;-89
2022/06/02 20:19:56;;;;;;;0.30;0.10;;;17.60;68.20;;;;;;10319084;28;20524;-88
2022/06/02 20:25:11;;;;;;;0.17;0.13;;;17.50;69.30;;;;;;10281932;28;20042;-89
2022/06/02 20:30:19;;;;;;;0.15;0.10;;;17.30;70.10;;;;;;10279382;28;20062;-89
2022/06/02 20:35:27;;;;;;;0.40;0.20;;;17.20;70.80;;;;;;10248833;28;20051;-88
2022/06/02 20:40:38;;;;;;;0.68;0.10;;;17.10;71.50;;;;;;10268089;28;20055;-87
2022/06/02 20:46:11;;;;;;;0.10;0.10;;;17.00;72.20;;;;;;10266350;28;20097;-88
2022/06/02 20:51:20;;;;;;;0.20;0.10;;;16.90;73.00;;;;;;10262272;28;20051;-88
2022/06/02 20:56:39;;;;;;;1.58;0.20;;;16.90;73.50;;;;;;10257989;28;20051;-87
2022/06/02 21:01:53;;;;;;;0.13;0.10;;;16.80;74.20;;;;;;10274105;28;20043;-87
2022/06/02 21:06:59;;;;;;;2.50;0.20;;;16.70;74.40;;;;;;10254443;28;20043;-86
2022/06/02 21:12:09;;;;;;;1.25;0.20;;;16.70;75.00;;;;;;10275548;28;20074;-87
2022/06/02 21:17:24;;;;;;;0.17;0.10;;;16.60;75.50;;;;;;10240964;28;20051;-86
2022/06/02 21:22:49;;;;;;;1.02;0.20;;;16.50;76.10;;;;;;10245877;28;20067;-87
2022/06/02 21:28:08;;;;;;;0.38;0.20;;;16.40;77.10;;;;;;10272922;28;20055;-87
2022/06/02 21:33:33;;;;;;;2.75;0.70;;;16.40;78.00;;;;;;10305330;28;20068;-87
2022/06/02 21:38:46;;;;;;;5.13;0.60;;;16.30;79.10;;;;;;10268022;28;20181;-87
2022/06/02 21:43:53;;;;;;;1.85;0.30;;;16.20;80.00;;;;;;10277480;28;20520;-86
2022/06/02 21:49:21;;;;;;;0.35;0.30;;;16.10;80.20;;;;;;10294653;28;20051;-86
2022/06/02 21:54:47;;;;;;;1.48;0.50;;;16.00;81.40;;;;;;10284143;28;20042;-87
2022/06/02 21:59:56;;;;;;;2.90;0.40;;;15.90;82.10;;;;;;10281739;28;20077;-87
2022/06/02 22:05:19;;;;;;;2.50;0.60;;;15.80;83.70;;;;;;10277973;28;20516;-87
2022/06/02 22:10:45;;;;;;;1.67;0.40;;;15.70;84.20;;;;;;10282507;28;20051;-87
2022/06/02 22:15:56;;;;;;;0.30;0.20;;;15.60;85.40;;;;;;10298288;28;20054;-87
2022/06/02 22:21:01;;;;;;;3.92;0.30;;;15.40;85.80;;;;;;10297035;28;20122;-87
2022/06/02 22:26:26;;;;;;;3.65;0.20;;;15.30;87.10;;;;;;10294289;28;20504;-87
2022/06/02 22:32:09;;;;;;;0.30;0.20;;;15.30;86.80;;;;;;10300278;28;20451;-87
2022/06/02 22:37:24;;;;;;;0.80;0.35;;;15.10;88.50;;;;;;10284390;28;20046;-87
2022/06/02 22:42:44;;;;;;;1.80;0.30;;;15.10;89.30;;;;;;10291238;28;20054;-88
2022/06/02 22:48:43;;;;;;;0.32;0.22;;;15.00;89.20;;;;;;10288517;28;20129;-87
2022/06/02 22:54:18;;;;;;;0.50;0.30;;;15.00;90.00;;;;;;10162489;28;20055;-87
2022/06/02 22:59:42;;;;;;;1.38;0.50;;;15.00;90.30;;;;;;10290703;28;20121;-88
2022/06/02 23:05:24;;;;;;;0.52;0.40;;;15.00;90.60;;;;;;10300599;28;21121;-89
2022/06/02 23:10:52;;;;;;;0.55;0.43;;;14.90;90.50;;;;;;10278465;28;20057;-90
2022/06/02 23:16:30;;;;;;;0.55;0.20;;;15.00;90.50;;;;;;10288819;28;20567;-88
2022/06/02 23:21:56;;;;;;;;;;;15.00;90.70;;;;;;10291591;28;20057;-89
2022/06/02 23:27:26;;;;;;;0.60;0.30;;;15.00;90.50;;;;;;10291906;28;19929;-88
2022/06/02 23:32:46;;;;;;;1.05;0.30;;;15.00;90.70;;;;;;10268906;28;20057;-88
2022/06/02 23:38:07;;;;;;;0.88;0.20;;;15.00;91.00;;;;;;10282100;28;20049;-88
2022/06/02 23:49:30;;;;;;;3.63;0.30;;;15.00;91.40;;;;;;10177354;28;20137;-90
2022/06/02 23:54:47;;;;;;;1.10;0.25;;;14.90;91.70;;;;;;10276827;28;20138;-89
